KATY/ATY METAR and TAF weather

Enter ICAO airport designator
Station Type Date Time Source
KATY METAR 2018/07/21 10:53 UTC NOAA

KATY 211053Z AUTO 35006KT 1/4SM FG VV002 16/16 A3007 RMK AO2 SLP176 T01560156


Station Type Date Time Source
KATY Decoded METAR 2018/07/21 10:53 UTC NOAA

WATERTOWN MUNICIPAL AIRPORT, SD, United States (KATY) 44-54N 097-09W 532M
Jul 21, 2018 - 06:53 AM EDT / 2018.07.21 1053 UTC
Wind: from the N (350 degrees) at 7 MPH (6 KT):0
Visibility: 1/4 mile(s):0
Sky conditions: obscured
Weather: fog
Temperature: 60.1 F (15.6 C)
Dew Point: 60.1 F (15.6 C)
Relative Humidity: 100%
Pressure (altimeter): 30.07 in. Hg (1018 hPa)
ob: KATY 211053Z AUTO 35006KT 1/4SM FG VV002 16/16 A3007 RMK AO2 SLP176 T01560156
cycle: 11

Station Type Date Time Source
KATY TAF 2018/07/21 12:40 UTC NOAA

TAF KATY 211138Z 2112/2212 35006KT 1/4SM FG VV002
FM211300 36006KT 1/2SM FG BKN002
FM211400 01006KT 5SM BR BKN003
FM211500 01006KT P6SM SCT010
FM212000 04007KT P6SM FEW130
FM221100 12006KT P6SM SCT070


Example: see airport list